sensor_id;sensor_type;location;lat;lon;timestamp;P1;durP1;ratioP1;P2;durP2;ratioP2
5058;SDS011;2548;52.050;11.036;2022-10-28T00:00:47;5.90;;;3.90;;
5058;SDS011;2548;52.050;11.036;2022-10-28T00:03:16;11.05;;;4.35;;
5058;SDS011;2548;52.050;11.036;2022-10-28T00:05:44;9.32;;;2.95;;
5058;SDS011;2548;52.050;11.036;2022-10-28T00:08:11;4.00;;;3.70;;
5058;SDS011;2548;52.050;11.036;2022-10-28T00:10:39;10.68;;;4.15;;
5058;SDS011;2548;52.050;11.036;2022-10-28T00:13:06;8.93;;;4.07;;
5058;SDS011;2548;52.050;11.036;2022-10-28T00:15:35;5.65;;;3.63;;
5058;SDS011;2548;52.050;11.036;2022-10-28T00:18:02;11.30;;;4.30;;
5058;SDS011;2548;52.050;11.036;2022-10-28T00:20:29;12.88;;;4.40;;
5058;SDS011;2548;52.050;11.036;2022-10-28T00:22:57;5.70;;;3.97;;
5058;SDS011;2548;52.050;11.036;2022-10-28T00:25:24;7.03;;;3.70;;
5058;SDS011;2548;52.050;11.036;2022-10-28T00:27:52;8.93;;;4.50;;
5058;SDS011;2548;52.050;11.036;2022-10-28T00:30:19;5.25;;;3.30;;
5058;SDS011;2548;52.050;11.036;2022-10-28T00:32:48;5.78;;;3.83;;
5058;SDS011;2548;52.050;11.036;2022-10-28T00:35:15;10.25;;;5.10;;
5058;SDS011;2548;52.050;11.036;2022-10-28T00:37:42;7.57;;;4.35;;
5058;SDS011;2548;52.050;11.036;2022-10-28T00:40:10;4.30;;;4.00;;
5058;SDS011;2548;52.050;11.036;2022-10-28T00:42:38;10.63;;;4.30;;
5058;SDS011;2548;52.050;11.036;2022-10-28T00:45:05;6.88;;;5.20;;
5058;SDS011;2548;52.050;11.036;2022-10-28T00:47:36;8.43;;;4.53;;
5058;SDS011;2548;52.050;11.036;2022-10-28T00:50:14;5.30;;;4.80;;
5058;SDS011;2548;52.050;11.036;2022-10-28T00:52:47;11.00;;;4.45;;
5058;SDS011;2548;52.050;11.036;2022-10-28T00:55:18;10.15;;;5.00;;
5058;SDS011;2548;52.050;11.036;2022-10-28T00:57:46;5.28;;;4.10;;
5058;SDS011;2548;52.050;11.036;2022-10-28T01:00:15;14.88;;;4.47;;
5058;SDS011;2548;52.050;11.036;2022-10-28T01:02:43;13.15;;;4.80;;
5058;SDS011;2548;52.050;11.036;2022-10-28T01:05:14;9.63;;;4.90;;
5058;SDS011;2548;52.050;11.036;2022-10-28T01:07:45;21.38;;;4.95;;
5058;SDS011;2548;52.050;11.036;2022-10-28T01:10:12;9.93;;;4.35;;
5058;SDS011;2548;52.050;11.036;2022-10-28T01:12:44;6.90;;;5.10;;
5058;SDS011;2548;52.050;11.036;2022-10-28T01:15:25;10.60;;;4.32;;
5058;SDS011;2548;52.050;11.036;2022-10-28T01:17:59;13.20;;;5.60;;
5058;SDS011;2548;52.050;11.036;2022-10-28T01:20:43;11.73;;;4.68;;
5058;SDS011;2548;52.050;11.036;2022-10-28T01:23:29;7.28;;;5.38;;
5058;SDS011;2548;52.050;11.036;2022-10-28T01:26:10;5.13;;;4.72;;
5058;SDS011;2548;52.050;11.036;2022-10-28T01:32:13;9.60;;;4.65;;
5058;SDS011;2548;52.050;11.036;2022-10-28T01:34:50;8.25;;;4.50;;
5058;SDS011;2548;52.050;11.036;2022-10-28T01:37:25;5.93;;;5.35;;
5058;SDS011;2548;52.050;11.036;2022-10-28T01:40:01;9.88;;;6.18;;
5058;SDS011;2548;52.050;11.036;2022-10-28T01:42:35;6.28;;;5.60;;
5058;SDS011;2548;52.050;11.036;2022-10-28T01:45:10;13.98;;;5.30;;
5058;SDS011;2548;52.050;11.036;2022-10-28T01:47:43;9.40;;;4.82;;
5058;SDS011;2548;52.050;11.036;2022-10-28T01:50:17;6.65;;;4.95;;
5058;SDS011;2548;52.050;11.036;2022-10-28T01:52:49;10.68;;;4.47;;
5058;SDS011;2548;52.050;11.036;2022-10-28T01:55:20;7.15;;;5.40;;
5058;SDS011;2548;52.050;11.036;2022-10-28T01:57:51;11.55;;;5.68;;
5058;SDS011;2548;52.050;11.036;2022-10-28T02:00:22;17.65;;;5.90;;
5058;SDS011;2548;52.050;11.036;2022-10-28T02:02:52;9.73;;;5.25;;
5058;SDS011;2548;52.050;11.036;2022-10-28T02:05:36;7.57;;;4.90;;
5058;SDS011;2548;52.050;11.036;2022-10-28T02:08:08;13.77;;;5.57;;
5058;SDS011;2548;52.050;11.036;2022-10-28T02:10:50;18.17;;;5.95;;
5058;SDS011;2548;52.050;11.036;2022-10-28T02:13:23;15.02;;;4.53;;
5058;SDS011;2548;52.050;11.036;2022-10-28T02:16:00;12.07;;;6.35;;
5058;SDS011;2548;52.050;11.036;2022-10-28T02:18:39;6.15;;;5.47;;
5058;SDS011;2548;52.050;11.036;2022-10-28T02:21:15;7.97;;;5.60;;
5058;SDS011;2548;52.050;11.036;2022-10-28T02:23:51;6.18;;;5.57;;
5058;SDS011;2548;52.050;11.036;2022-10-28T02:26:25;6.40;;;5.80;;
5058;SDS011;2548;52.050;11.036;2022-10-28T02:29:02;6.10;;;5.43;;
5058;SDS011;2548;52.050;11.036;2022-10-28T02:31:33;7.68;;;5.80;;
5058;SDS011;2548;52.050;11.036;2022-10-28T02:34:06;6.85;;;6.25;;
5058;SDS011;2548;52.050;11.036;2022-10-28T02:36:36;11.80;;;6.55;;
5058;SDS011;2548;52.050;11.036;2022-10-28T02:39:07;15.15;;;5.70;;
5058;SDS011;2548;52.050;11.036;2022-10-28T02:41:36;11.85;;;6.75;;
5058;SDS011;2548;52.050;11.036;2022-10-28T02:44:08;7.60;;;6.53;;
5058;SDS011;2548;52.050;11.036;2022-10-28T02:46:39;7.03;;;6.43;;
5058;SDS011;2548;52.050;11.036;2022-10-28T02:49:12;7.90;;;5.28;;
5058;SDS011;2548;52.050;11.036;2022-10-28T02:51:41;7.60;;;6.03;;
5058;SDS011;2548;52.050;11.036;2022-10-28T02:54:13;8.77;;;6.57;;
5058;SDS011;2548;52.050;11.036;2022-10-28T02:56:44;7.30;;;5.78;;
5058;SDS011;2548;52.050;11.036;2022-10-28T02:59:17;10.27;;;5.30;;
5058;SDS011;2548;52.050;11.036;2022-10-28T03:01:44;6.82;;;5.95;;
5058;SDS011;2548;52.050;11.036;2022-10-28T03:04:13;10.10;;;5.22;;
5058;SDS011;2548;52.050;11.036;2022-10-28T03:06:40;7.38;;;6.47;;
5058;SDS011;2548;52.050;11.036;2022-10-28T03:09:07;8.98;;;4.90;;
5058;SDS011;2548;52.050;11.036;2022-10-28T03:11:35;5.95;;;5.25;;
5058;SDS011;2548;52.050;11.036;2022-10-28T03:14:02;7.28;;;5.68;;
5058;SDS011;2548;52.050;11.036;2022-10-28T03:16:29;12.27;;;5.45;;
5058;SDS011;2548;52.050;11.036;2022-10-28T03:18:57;7.32;;;5.70;;
5058;SDS011;2548;52.050;11.036;2022-10-28T03:21:25;9.25;;;4.80;;
5058;SDS011;2548;52.050;11.036;2022-10-28T03:23:53;8.70;;;4.70;;
5058;SDS011;2548;52.050;11.036;2022-10-28T03:26:20;6.55;;;5.40;;
5058;SDS011;2548;52.050;11.036;2022-10-28T03:28:48;6.28;;;5.72;;
5058;SDS011;2548;52.050;11.036;2022-10-28T03:31:15;10.65;;;5.35;;
5058;SDS011;2548;52.050;11.036;2022-10-28T03:33:43;22.88;;;7.47;;
5058;SDS011;2548;52.050;11.036;2022-10-28T03:36:10;6.68;;;5.70;;
5058;SDS011;2548;52.050;11.036;2022-10-28T03:38:39;7.78;;;5.28;;
5058;SDS011;2548;52.050;11.036;2022-10-28T03:41:06;8.23;;;5.32;;
5058;SDS011;2548;52.050;11.036;2022-10-28T03:43:33;9.13;;;7.03;;
5058;SDS011;2548;52.050;11.036;2022-10-28T03:46:00;4.75;;;4.35;;
5058;SDS011;2548;52.050;11.036;2022-10-28T03:48:28;14.02;;;5.55;;
5058;SDS011;2548;52.050;11.036;2022-10-28T03:50:55;6.47;;;5.90;;
5058;SDS011;2548;52.050;11.036;2022-10-28T03:53:22;10.32;;;6.78;;
5058;SDS011;2548;52.050;11.036;2022-10-28T03:55:52;9.27;;;6.00;;
5058;SDS011;2548;52.050;11.036;2022-10-28T03:58:19;6.55;;;5.40;;
5058;SDS011;2548;52.050;11.036;2022-10-28T04:00:47;13.90;;;6.78;;
5058;SDS011;2548;52.050;11.036;2022-10-28T04:03:15;7.97;;;6.45;;
5058;SDS011;2548;52.050;11.036;2022-10-28T04:05:42;6.63;;;6.00;;
5058;SDS011;2548;52.050;11.036;2022-10-28T04:08:10;7.93;;;6.85;;
5058;SDS011;2548;52.050;11.036;2022-10-28T04:10:37;6.15;;;5.45;;
5058;SDS011;2548;52.050;11.036;2022-10-28T04:13:06;13.18;;;6.25;;
5058;SDS011;2548;52.050;11.036;2022-10-28T04:15:33;8.43;;;6.00;;
5058;SDS011;2548;52.050;11.036;2022-10-28T04:18:01;16.42;;;7.28;;
5058;SDS011;2548;52.050;11.036;2022-10-28T04:20:29;13.63;;;6.93;;
5058;SDS011;2548;52.050;11.036;2022-10-28T04:22:56;10.73;;;6.93;;
5058;SDS011;2548;52.050;11.036;2022-10-28T04:25:25;13.30;;;5.78;;
5058;SDS011;2548;52.050;11.036;2022-10-28T04:27:53;16.05;;;5.70;;
5058;SDS011;2548;52.050;11.036;2022-10-28T04:30:22;9.65;;;5.65;;
5058;SDS011;2548;52.050;11.036;2022-10-28T04:32:50;7.45;;;6.25;;
5058;SDS011;2548;52.050;11.036;2022-10-28T04:35:17;12.10;;;6.72;;
5058;SDS011;2548;52.050;11.036;2022-10-28T04:37:45;7.20;;;5.45;;
5058;SDS011;2548;52.050;11.036;2022-10-28T04:40:12;7.47;;;5.90;;
5058;SDS011;2548;52.050;11.036;2022-10-28T04:42:39;8.52;;;5.05;;
5058;SDS011;2548;52.050;11.036;2022-10-28T04:45:07;9.32;;;5.93;;
5058;SDS011;2548;52.050;11.036;2022-10-28T04:47:36;7.45;;;5.68;;
5058;SDS011;2548;52.050;11.036;2022-10-28T04:50:04;12.82;;;7.35;;
5058;SDS011;2548;52.050;11.036;2022-10-28T04:52:32;15.18;;;6.53;;
5058;SDS011;2548;52.050;11.036;2022-10-28T04:54:59;17.33;;;6.75;;
5058;SDS011;2548;52.050;11.036;2022-10-28T04:57:26;7.82;;;6.30;;
5058;SDS011;2548;52.050;11.036;2022-10-28T04:59:54;7.20;;;6.32;;
5058;SDS011;2548;52.050;11.036;2022-10-28T05:02:21;7.93;;;7.20;;
5058;SDS011;2548;52.050;11.036;2022-10-28T05:04:50;6.70;;;6.05;;
5058;SDS011;2548;52.050;11.036;2022-10-28T05:07:17;10.07;;;6.38;;
5058;SDS011;2548;52.050;11.036;2022-10-28T05:09:45;9.73;;;6.30;;
5058;SDS011;2548;52.050;11.036;2022-10-28T05:12:12;13.73;;;6.50;;
5058;SDS011;2548;52.050;11.036;2022-10-28T05:14:39;9.85;;;6.60;;
5058;SDS011;2548;52.050;11.036;2022-10-28T05:17:07;5.72;;;5.07;;
5058;SDS011;2548;52.050;11.036;2022-10-28T05:19:35;8.60;;;6.57;;
5058;SDS011;2548;52.050;11.036;2022-10-28T05:22:04;6.18;;;5.57;;
5058;SDS011;2548;52.050;11.036;2022-10-28T05:24:31;7.90;;;5.47;;
5058;SDS011;2548;52.050;11.036;2022-10-28T05:26:58;7.65;;;5.72;;
5058;SDS011;2548;52.050;11.036;2022-10-28T05:29:26;24.88;;;4.93;;
5058;SDS011;2548;52.050;11.036;2022-10-28T05:31:53;6.78;;;6.13;;
5058;SDS011;2548;52.050;11.036;2022-10-28T05:34:20;6.40;;;5.78;;
5058;SDS011;2548;52.050;11.036;2022-10-28T05:36:48;17.90;;;5.95;;
5058;SDS011;2548;52.050;11.036;2022-10-28T05:39:17;9.52;;;5.38;;
5058;SDS011;2548;52.050;11.036;2022-10-28T05:41:44;10.57;;;5.88;;
5058;SDS011;2548;52.050;11.036;2022-10-28T05:44:11;15.13;;;6.70;;
5058;SDS011;2548;52.050;11.036;2022-10-28T05:46:39;9.43;;;7.55;;
5058;SDS011;2548;52.050;11.036;2022-10-28T05:49:06;13.77;;;7.00;;
5058;SDS011;2548;52.050;11.036;2022-10-28T05:51:33;19.15;;;7.20;;
5058;SDS011;2548;52.050;11.036;2022-10-28T05:54:01;17.50;;;6.15;;
5058;SDS011;2548;52.050;11.036;2022-10-28T05:56:29;8.88;;;6.07;;
5058;SDS011;2548;52.050;11.036;2022-10-28T05:58:57;14.55;;;8.00;;
5058;SDS011;2548;52.050;11.036;2022-10-28T06:01:24;16.80;;;7.70;;
5058;SDS011;2548;52.050;11.036;2022-10-28T06:03:51;20.13;;;7.03;;
5058;SDS011;2548;52.050;11.036;2022-10-28T06:06:19;11.77;;;7.25;;
5058;SDS011;2548;52.050;11.036;2022-10-28T06:08:46;12.93;;;6.53;;
5058;SDS011;2548;52.050;11.036;2022-10-28T06:11:13;12.75;;;7.03;;
5058;SDS011;2548;52.050;11.036;2022-10-28T06:13:42;9.15;;;6.20;;
5058;SDS011;2548;52.050;11.036;2022-10-28T06:16:09;17.52;;;8.27;;
5058;SDS011;2548;52.050;11.036;2022-10-28T06:18:37;9.00;;;6.13;;
5058;SDS011;2548;52.050;11.036;2022-10-28T06:21:04;13.57;;;5.63;;
5058;SDS011;2548;52.050;11.036;2022-10-28T06:23:32;10.63;;;6.97;;
5058;SDS011;2548;52.050;11.036;2022-10-28T06:25:59;13.93;;;7.53;;
5058;SDS011;2548;52.050;11.036;2022-10-28T06:28:28;13.63;;;7.03;;
5058;SDS011;2548;52.050;11.036;2022-10-28T06:31:01;13.40;;;6.55;;
5058;SDS011;2548;52.050;11.036;2022-10-28T06:33:29;14.45;;;6.63;;
5058;SDS011;2548;52.050;11.036;2022-10-28T06:35:57;15.90;;;7.13;;
5058;SDS011;2548;52.050;11.036;2022-10-28T06:38:25;7.57;;;6.60;;
5058;SDS011;2548;52.050;11.036;2022-10-28T06:40:53;19.42;;;6.93;;
5058;SDS011;2548;52.050;11.036;2022-10-28T06:43:22;9.25;;;6.72;;
5058;SDS011;2548;52.050;11.036;2022-10-28T06:45:50;11.50;;;6.07;;
5058;SDS011;2548;52.050;11.036;2022-10-28T06:48:22;17.55;;;6.45;;
5058;SDS011;2548;52.050;11.036;2022-10-28T06:50:50;13.32;;;6.68;;
5058;SDS011;2548;52.050;11.036;2022-10-28T06:53:20;9.52;;;5.78;;
5058;SDS011;2548;52.050;11.036;2022-10-28T06:55:50;17.20;;;6.53;;
5058;SDS011;2548;52.050;11.036;2022-10-28T06:58:18;11.02;;;6.18;;
5058;SDS011;2548;52.050;11.036;2022-10-28T07:00:46;10.13;;;5.70;;
5058;SDS011;2548;52.050;11.036;2022-10-28T07:03:13;10.70;;;6.53;;
5058;SDS011;2548;52.050;11.036;2022-10-28T07:05:42;6.75;;;5.53;;
5058;SDS011;2548;52.050;11.036;2022-10-28T07:08:10;17.92;;;6.65;;
5058;SDS011;2548;52.050;11.036;2022-10-28T07:10:39;8.80;;;5.82;;
5058;SDS011;2548;52.050;11.036;2022-10-28T07:13:06;8.93;;;5.72;;
5058;SDS011;2548;52.050;11.036;2022-10-28T07:15:33;12.98;;;6.15;;
5058;SDS011;2548;52.050;11.036;2022-10-28T07:18:01;13.35;;;5.75;;
5058;SDS011;2548;52.050;11.036;2022-10-28T07:20:28;14.57;;;5.65;;
5058;SDS011;2548;52.050;11.036;2022-10-28T07:22:59;14.50;;;5.95;;
5058;SDS011;2548;52.050;11.036;2022-10-28T07:25:28;12.70;;;7.18;;
5058;SDS011;2548;52.050;11.036;2022-10-28T07:27:56;8.65;;;5.35;;
5058;SDS011;2548;52.050;11.036;2022-10-28T07:30:24;11.43;;;5.82;;
5058;SDS011;2548;52.050;11.036;2022-10-28T07:32:51;15.45;;;7.03;;
5058;SDS011;2548;52.050;11.036;2022-10-28T07:35:19;13.23;;;5.55;;
5058;SDS011;2548;52.050;11.036;2022-10-28T07:37:47;13.75;;;5.57;;
5058;SDS011;2548;52.050;11.036;2022-10-28T07:40:15;10.35;;;4.80;;
5058;SDS011;2548;52.050;11.036;2022-10-28T07:42:43;11.85;;;5.30;;
5058;SDS011;2548;52.050;11.036;2022-10-28T07:45:11;18.75;;;5.55;;
5058;SDS011;2548;52.050;11.036;2022-10-28T07:47:38;26.88;;;5.82;;
5058;SDS011;2548;52.050;11.036;2022-10-28T07:50:06;17.73;;;5.13;;
5058;SDS011;2548;52.050;11.036;2022-10-28T07:52:34;12.55;;;5.47;;
5058;SDS011;2548;52.050;11.036;2022-10-28T07:55:02;8.55;;;4.53;;
5058;SDS011;2548;52.050;11.036;2022-10-28T07:57:32;12.23;;;4.15;;
5058;SDS011;2548;52.050;11.036;2022-10-28T08:00:00;10.32;;;4.05;;
5058;SDS011;2548;52.050;11.036;2022-10-28T08:02:36;14.55;;;4.30;;
5058;SDS011;2548;52.050;11.036;2022-10-28T08:05:04;7.18;;;4.22;;
5058;SDS011;2548;52.050;11.036;2022-10-28T08:07:32;14.05;;;4.93;;
5058;SDS011;2548;52.050;11.036;2022-10-28T08:09:59;12.55;;;4.20;;
5058;SDS011;2548;52.050;11.036;2022-10-28T08:12:26;12.95;;;4.57;;
5058;SDS011;2548;52.050;11.036;2022-10-28T08:14:56;25.02;;;4.68;;
5058;SDS011;2548;52.050;11.036;2022-10-28T08:17:24;10.00;;;4.22;;
5058;SDS011;2548;52.050;11.036;2022-10-28T08:19:51;9.15;;;4.57;;
5058;SDS011;2548;52.050;11.036;2022-10-28T08:22:18;23.15;;;5.10;;
5058;SDS011;2548;52.050;11.036;2022-10-28T08:24:46;11.30;;;4.70;;
5058;SDS011;2548;52.050;11.036;2022-10-28T08:27:13;9.50;;;4.20;;
5058;SDS011;2548;52.050;11.036;2022-10-28T08:29:40;12.50;;;4.43;;
5058;SDS011;2548;52.050;11.036;2022-10-28T08:32:09;13.88;;;4.57;;
5058;SDS011;2548;52.050;11.036;2022-10-28T08:34:36;16.85;;;4.93;;
5058;SDS011;2548;52.050;11.036;2022-10-28T08:37:04;7.88;;;4.03;;
5058;SDS011;2548;52.050;11.036;2022-10-28T08:39:31;13.60;;;4.72;;
5058;SDS011;2548;52.050;11.036;2022-10-28T08:42:01;19.50;;;4.53;;
5058;SDS011;2548;52.050;11.036;2022-10-28T08:47:57;5.88;;;3.92;;
5058;SDS011;2548;52.050;11.036;2022-10-28T08:50:37;11.05;;;3.90;;
5058;SDS011;2548;52.050;11.036;2022-10-28T08:53:13;18.30;;;4.80;;
5058;SDS011;2548;52.050;11.036;2022-10-28T08:55:45;10.77;;;4.65;;
5058;SDS011;2548;52.050;11.036;2022-10-28T08:58:15;13.85;;;6.13;;
5058;SDS011;2548;52.050;11.036;2022-10-28T09:00:48;31.10;;;20.85;;
5058;SDS011;2548;52.050;11.036;2022-10-28T09:03:20;42.63;;;24.25;;
5058;SDS011;2548;52.050;11.036;2022-10-28T09:06:00;99.53;;;48.97;;
5058;SDS011;2548;52.050;11.036;2022-10-28T09:08:30;79.43;;;44.88;;
5058;SDS011;2548;52.050;11.036;2022-10-28T09:11:02;103.07;;;53.47;;
5058;SDS011;2548;52.050;11.036;2022-10-28T09:13:52;81.93;;;41.38;;
5058;SDS011;2548;52.050;11.036;2022-10-28T09:16:33;22.98;;;11.45;;
5058;SDS011;2548;52.050;11.036;2022-10-28T09:19:12;40.80;;;18.15;;
5058;SDS011;2548;52.050;11.036;2022-10-28T09:21:52;26.05;;;12.93;;
5058;SDS011;2548;52.050;11.036;2022-10-28T09:24:35;22.02;;;9.48;;
5058;SDS011;2548;52.050;11.036;2022-10-28T09:27:10;9.60;;;5.80;;
5058;SDS011;2548;52.050;11.036;2022-10-28T09:29:49;11.53;;;4.03;;
5058;SDS011;2548;52.050;11.036;2022-10-28T09:32:28;5.97;;;4.45;;
5058;SDS011;2548;52.050;11.036;2022-10-28T09:35:04;20.20;;;10.87;;
5058;SDS011;2548;52.050;11.036;2022-10-28T09:37:36;18.27;;;10.23;;
5058;SDS011;2548;52.050;11.036;2022-10-28T09:40:12;19.13;;;9.00;;
5058;SDS011;2548;52.050;11.036;2022-10-28T09:42:43;13.97;;;6.27;;
5058;SDS011;2548;52.050;11.036;2022-10-28T09:45:15;15.00;;;5.93;;
5058;SDS011;2548;52.050;11.036;2022-10-28T09:47:48;10.98;;;4.97;;
5058;SDS011;2548;52.050;11.036;2022-10-28T09:50:23;14.93;;;4.53;;
5058;SDS011;2548;52.050;11.036;2022-10-28T09:52:55;16.63;;;5.80;;
5058;SDS011;2548;52.050;11.036;2022-10-28T09:55:29;17.57;;;9.00;;
5058;SDS011;2548;52.050;11.036;2022-10-28T09:57:57;26.00;;;13.80;;
5058;SDS011;2548;52.050;11.036;2022-10-28T10:00:24;15.95;;;8.80;;
5058;SDS011;2548;52.050;11.036;2022-10-28T10:02:53;13.70;;;8.07;;
5058;SDS011;2548;52.050;11.036;2022-10-28T10:05:24;15.03;;;6.80;;
5058;SDS011;2548;52.050;11.036;2022-10-28T10:07:53;15.20;;;5.13;;
5058;SDS011;2548;52.050;11.036;2022-10-28T10:10:23;11.80;;;6.13;;
5058;SDS011;2548;52.050;11.036;2022-10-28T10:12:54;22.93;;;7.70;;
5058;SDS011;2548;52.050;11.036;2022-10-28T10:15:27;11.47;;;5.17;;
5058;SDS011;2548;52.050;11.036;2022-10-28T10:17:56;17.30;;;6.73;;
5058;SDS011;2548;52.050;11.036;2022-10-28T10:20:28;12.23;;;5.30;;
5058;SDS011;2548;52.050;11.036;2022-10-28T10:23:20;12.20;;;5.60;;
5058;SDS011;2548;52.050;11.036;2022-10-28T10:25:52;16.93;;;4.83;;
5058;SDS011;2548;52.050;11.036;2022-10-28T10:28:21;12.30;;;3.63;;
5058;SDS011;2548;52.050;11.036;2022-10-28T10:30:51;18.10;;;5.00;;
5058;SDS011;2548;52.050;11.036;2022-10-28T10:33:21;8.60;;;4.00;;
5058;SDS011;2548;52.050;11.036;2022-10-28T10:35:56;11.80;;;4.00;;
5058;SDS011;2548;52.050;11.036;2022-10-28T10:38:26;8.27;;;4.50;;
5058;SDS011;2548;52.050;11.036;2022-10-28T10:40:55;23.43;;;5.60;;
5058;SDS011;2548;52.050;11.036;2022-10-28T10:43:24;13.43;;;5.50;;
5058;SDS011;2548;52.050;11.036;2022-10-28T10:46:01;22.93;;;6.50;;
5058;SDS011;2548;52.050;11.036;2022-10-28T10:48:30;16.30;;;4.77;;
5058;SDS011;2548;52.050;11.036;2022-10-28T10:51:04;13.67;;;4.70;;
5058;SDS011;2548;52.050;11.036;2022-10-28T10:53:34;13.43;;;5.67;;
5058;SDS011;2548;52.050;11.036;2022-10-28T10:56:03;15.13;;;5.40;;
5058;SDS011;2548;52.050;11.036;2022-10-28T10:58:35;17.23;;;4.37;;
5058;SDS011;2548;52.050;11.036;2022-10-28T11:01:05;9.77;;;3.93;;
5058;SDS011;2548;52.050;11.036;2022-10-28T11:03:34;12.60;;;3.93;;
5058;SDS011;2548;52.050;11.036;2022-10-28T11:06:06;16.83;;;4.10;;
5058;SDS011;2548;52.050;11.036;2022-10-28T11:08:44;15.60;;;3.53;;
5058;SDS011;2548;52.050;11.036;2022-10-28T11:11:12;8.80;;;4.13;;
5058;SDS011;2548;52.050;11.036;2022-10-28T11:13:44;19.60;;;3.53;;
5058;SDS011;2548;52.050;11.036;2022-10-28T11:16:17;10.07;;;3.03;;
5058;SDS011;2548;52.050;11.036;2022-10-28T11:18:46;9.10;;;4.10;;
5058;SDS011;2548;52.050;11.036;2022-10-28T11:24:12;10.53;;;3.40;;
5058;SDS011;2548;52.050;11.036;2022-10-28T11:26:55;11.50;;;3.47;;
5058;SDS011;2548;52.050;11.036;2022-10-28T11:29:30;11.83;;;3.13;;
5058;SDS011;2548;52.050;11.036;2022-10-28T11:32:05;12.10;;;4.20;;
5058;SDS011;2548;52.050;11.036;2022-10-28T11:37:53;16.17;;;3.13;;
5058;SDS011;2548;52.050;11.036;2022-10-28T11:40:29;21.10;;;4.13;;
5058;SDS011;2548;52.050;11.036;2022-10-28T11:43:17;20.63;;;4.53;;
5058;SDS011;2548;52.050;11.036;2022-10-28T11:45:57;12.67;;;4.00;;
5058;SDS011;2548;52.050;11.036;2022-10-28T11:48:34;9.37;;;2.93;;
5058;SDS011;2548;52.050;11.036;2022-10-28T11:51:14;10.77;;;3.60;;
5058;SDS011;2548;52.050;11.036;2022-10-28T11:54:02;12.17;;;3.30;;
5058;SDS011;2548;52.050;11.036;2022-10-28T11:56:41;15.80;;;3.67;;
5058;SDS011;2548;52.050;11.036;2022-10-28T11:59:25;16.10;;;3.27;;
5058;SDS011;2548;52.050;11.036;2022-10-28T12:02:14;14.00;;;3.83;;
5058;SDS011;2548;52.050;11.036;2022-10-28T12:04:57;11.20;;;3.73;;
5058;SDS011;2548;52.050;11.036;2022-10-28T12:07:46;8.37;;;3.67;;
5058;SDS011;2548;52.050;11.036;2022-10-28T12:10:36;11.83;;;3.23;;
5058;SDS011;2548;52.050;11.036;2022-10-28T12:13:19;12.47;;;3.87;;
5058;SDS011;2548;52.050;11.036;2022-10-28T12:15:54;7.70;;;3.17;;
5058;SDS011;2548;52.050;11.036;2022-10-28T12:18:28;11.53;;;3.50;;
5058;SDS011;2548;52.050;11.036;2022-10-28T12:21:03;24.13;;;3.77;;
5058;SDS011;2548;52.050;11.036;2022-10-28T12:23:39;11.23;;;2.77;;
5058;SDS011;2548;52.050;11.036;2022-10-28T12:26:11;21.57;;;3.37;;
5058;SDS011;2548;52.050;11.036;2022-10-28T12:28:42;15.77;;;2.93;;
5058;SDS011;2548;52.050;11.036;2022-10-28T12:31:16;8.37;;;3.00;;
5058;SDS011;2548;52.050;11.036;2022-10-28T12:33:46;8.97;;;3.00;;
5058;SDS011;2548;52.050;11.036;2022-10-28T12:36:19;9.50;;;3.00;;
5058;SDS011;2548;52.050;11.036;2022-10-28T12:38:54;11.83;;;3.77;;
5058;SDS011;2548;52.050;11.036;2022-10-28T12:41:29;11.60;;;2.70;;
5058;SDS011;2548;52.050;11.036;2022-10-28T12:44:09;14.13;;;3.13;;
5058;SDS011;2548;52.050;11.036;2022-10-28T12:46:41;10.80;;;3.20;;
5058;SDS011;2548;52.050;11.036;2022-10-28T12:49:17;38.23;;;4.30;;
5058;SDS011;2548;52.050;11.036;2022-10-28T12:51:52;7.33;;;2.63;;
5058;SDS011;2548;52.050;11.036;2022-10-28T12:54:20;14.77;;;3.13;;
5058;SDS011;2548;52.050;11.036;2022-10-28T12:56:58;19.27;;;3.40;;
5058;SDS011;2548;52.050;11.036;2022-10-28T12:59:31;21.90;;;3.83;;
5058;SDS011;2548;52.050;11.036;2022-10-28T13:02:04;9.90;;;3.47;;
5058;SDS011;2548;52.050;11.036;2022-10-28T13:04:42;7.90;;;2.80;;
5058;SDS011;2548;52.050;11.036;2022-10-28T13:07:17;19.47;;;3.43;;
5058;SDS011;2548;52.050;11.036;2022-10-28T13:10:00;15.97;;;4.30;;
5058;SDS011;2548;52.050;11.036;2022-10-28T13:18:40;10.33;;;3.10;;
5058;SDS011;2548;52.050;11.036;2022-10-28T13:21:45;16.33;;;4.10;;
5058;SDS011;2548;52.050;11.036;2022-10-28T13:24:23;8.83;;;2.60;;
5058;SDS011;2548;52.050;11.036;2022-10-28T13:26:55;18.30;;;4.00;;
5058;SDS011;2548;52.050;11.036;2022-10-28T13:29:25;13.87;;;4.40;;
5058;SDS011;2548;52.050;11.036;2022-10-28T13:31:54;14.53;;;3.47;;
5058;SDS011;2548;52.050;11.036;2022-10-28T13:34:28;5.90;;;3.00;;
5058;SDS011;2548;52.050;11.036;2022-10-28T13:36:58;9.90;;;3.30;;
5058;SDS011;2548;52.050;11.036;2022-10-28T13:39:38;12.03;;;3.10;;
5058;SDS011;2548;52.050;11.036;2022-10-28T13:51:31;7.33;;;2.90;;
5058;SDS011;2548;52.050;11.036;2022-10-28T13:54:23;6.83;;;3.23;;
5058;SDS011;2548;52.050;11.036;2022-10-28T13:56:52;12.17;;;3.30;;
5058;SDS011;2548;52.050;11.036;2022-10-28T13:59:33;19.60;;;3.60;;
5058;SDS011;2548;52.050;11.036;2022-10-28T14:02:19;12.90;;;3.50;;
5058;SDS011;2548;52.050;11.036;2022-10-28T14:04:53;14.80;;;3.63;;
5058;SDS011;2548;52.050;11.036;2022-10-28T14:07:22;17.80;;;4.10;;
5058;SDS011;2548;52.050;11.036;2022-10-28T14:09:54;19.63;;;3.77;;
5058;SDS011;2548;52.050;11.036;2022-10-28T14:12:26;11.53;;;3.80;;
5058;SDS011;2548;52.050;11.036;2022-10-28T14:17:46;10.13;;;3.40;;
5058;SDS011;2548;52.050;11.036;2022-10-28T14:20:20;21.63;;;3.70;;
5058;SDS011;2548;52.050;11.036;2022-10-28T14:22:56;13.80;;;3.30;;
5058;SDS011;2548;52.050;11.036;2022-10-28T14:31:37;16.67;;;3.43;;
5058;SDS011;2548;52.050;11.036;2022-10-28T14:37:20;9.50;;;2.80;;
5058;SDS011;2548;52.050;11.036;2022-10-28T14:40:15;9.80;;;2.97;;
5058;SDS011;2548;52.050;11.036;2022-10-28T14:42:58;12.30;;;2.60;;
5058;SDS011;2548;52.050;11.036;2022-10-28T14:45:38;12.37;;;3.10;;
5058;SDS011;2548;52.050;11.036;2022-10-28T14:51:21;5.80;;;3.10;;
5058;SDS011;2548;52.050;11.036;2022-10-28T14:53:51;14.83;;;4.10;;
5058;SDS011;2548;52.050;11.036;2022-10-28T14:56:23;12.23;;;3.27;;
5058;SDS011;2548;52.050;11.036;2022-10-28T14:58:52;13.70;;;3.20;;
5058;SDS011;2548;52.050;11.036;2022-10-28T15:01:23;24.97;;;3.97;;
5058;SDS011;2548;52.050;11.036;2022-10-28T15:03:53;10.03;;;3.13;;
5058;SDS011;2548;52.050;11.036;2022-10-28T15:06:29;7.87;;;3.07;;
5058;SDS011;2548;52.050;11.036;2022-10-28T15:09:02;15.83;;;3.47;;
5058;SDS011;2548;52.050;11.036;2022-10-28T15:11:44;8.43;;;3.23;;
5058;SDS011;2548;52.050;11.036;2022-10-28T15:14:23;20.37;;;3.50;;
5058;SDS011;2548;52.050;11.036;2022-10-28T15:16:53;11.67;;;3.43;;
5058;SDS011;2548;52.050;11.036;2022-10-28T15:19:21;10.57;;;3.73;;
5058;SDS011;2548;52.050;11.036;2022-10-28T15:22:01;9.57;;;3.53;;
5058;SDS011;2548;52.050;11.036;2022-10-28T15:24:33;8.97;;;3.40;;
5058;SDS011;2548;52.050;11.036;2022-10-28T15:27:00;12.40;;;4.60;;
5058;SDS011;2548;52.050;11.036;2022-10-28T15:29:28;8.30;;;3.50;;
5058;SDS011;2548;52.050;11.036;2022-10-28T15:32:02;11.37;;;3.40;;
5058;SDS011;2548;52.050;11.036;2022-10-28T15:34:35;24.03;;;3.57;;
5058;SDS011;2548;52.050;11.036;2022-10-28T15:37:03;9.90;;;3.70;;
5058;SDS011;2548;52.050;11.036;2022-10-28T15:39:32;13.57;;;4.23;;
5058;SDS011;2548;52.050;11.036;2022-10-28T15:41:59;13.80;;;4.77;;
5058;SDS011;2548;52.050;11.036;2022-10-28T15:44:31;18.13;;;3.93;;
5058;SDS011;2548;52.050;11.036;2022-10-28T15:47:02;13.37;;;3.57;;
5058;SDS011;2548;52.050;11.036;2022-10-28T15:49:41;24.43;;;4.00;;
5058;SDS011;2548;52.050;11.036;2022-10-28T15:52:26;7.23;;;3.50;;
5058;SDS011;2548;52.050;11.036;2022-10-28T15:54:59;20.37;;;4.03;;
5058;SDS011;2548;52.050;11.036;2022-10-28T15:57:28;11.67;;;3.27;;
5058;SDS011;2548;52.050;11.036;2022-10-28T16:02:51;10.87;;;2.80;;
5058;SDS011;2548;52.050;11.036;2022-10-28T16:05:42;8.93;;;3.87;;